createdAt,value
2023-04-15T00:06:26.512Z,5.20
2023-04-15T00:16:47.435Z,5.15
2023-04-15T00:27:08.873Z,5.15
2023-04-15T00:37:29.947Z,5.14
2023-04-15T00:47:51.653Z,5.15
2023-04-15T00:58:13.280Z,5.12
2023-04-15T01:08:36.630Z,5.12
2023-04-15T01:18:58.684Z,5.10
2023-04-15T01:29:20.230Z,5.14
2023-04-15T01:39:41.659Z,5.10
2023-04-15T01:50:02.819Z,5.11
2023-04-15T02:00:24.257Z,5.11
2023-04-15T02:10:47.045Z,5.12
2023-04-15T02:21:08.387Z,5.08
2023-04-15T02:31:37.174Z,5.07
2023-04-15T02:42:00.285Z,5.06
2023-04-15T02:52:22.049Z,5.04
2023-04-15T03:02:44.543Z,5.05
2023-04-15T03:13:05.807Z,5.06
2023-04-15T03:23:27.413Z,5.08
2023-04-15T03:33:50.159Z,5.10
2023-04-15T03:44:12.045Z,5.07
2023-04-15T03:54:32.928Z,5.04
2023-04-15T04:04:54.078Z,5.06
2023-04-15T04:15:16.155Z,5.05
2023-04-15T04:25:37.822Z,5.04
2023-04-15T04:35:59.222Z,5.06
2023-04-15T04:46:20.067Z,5.01
2023-04-15T04:56:41.703Z,5.03
2023-04-15T05:07:02.979Z,5.09
2023-04-15T05:17:24.682Z,5.07
2023-04-15T05:27:45.755Z,5.09
2023-04-15T05:38:07.179Z,5.11
2023-04-15T05:48:28.422Z,5.08
2023-04-15T05:58:50.585Z,5.04
2023-04-15T06:09:13.346Z,5.02
2023-04-15T06:19:35.184Z,5.05
2023-04-15T06:29:56.381Z,5.07
2023-04-15T06:40:17.842Z,5.05
2023-04-15T06:50:39.339Z,5.06
2023-04-15T07:01:00.686Z,5.08
2023-04-15T07:11:22.393Z,5.06
2023-04-15T07:21:43.633Z,5.09
2023-04-15T07:32:05.182Z,5.08
2023-04-15T07:42:26.191Z,5.07
2023-04-15T07:52:48.267Z,5.07
2023-04-15T08:03:09.462Z,5.09
2023-04-15T08:13:31.226Z,5.12
2023-04-15T08:23:53.266Z,5.16
2023-04-15T08:34:15.322Z,5.20
2023-04-15T08:44:39.382Z,5.26
2023-04-15T08:55:00.942Z,5.32
2023-04-15T09:05:23.353Z,5.39
2023-04-15T09:15:44.503Z,5.44
2023-04-15T09:26:06.646Z,5.49
2023-04-15T09:36:31.868Z,5.56
2023-04-15T09:46:53.269Z,5.61
2023-04-15T09:57:14.202Z,5.64
2023-04-15T10:07:35.444Z,5.70
2023-04-15T10:17:56.845Z,5.73
2023-04-15T10:28:18.246Z,5.75
2023-04-15T10:38:45.555Z,5.80
2023-04-15T10:49:14.475Z,5.86
2023-04-15T10:59:59.482Z,5.95
2023-04-15T11:10:21.553Z,6.02
2023-04-15T11:20:47.397Z,6.10
2023-04-15T11:31:16.580Z,6.17
2023-04-15T11:41:38.010Z,6.24
2023-04-15T11:51:59.147Z,6.33
2023-04-15T12:02:20.891Z,6.38
2023-04-15T12:12:42.482Z,6.42
2023-04-15T12:23:07.269Z,6.44
2023-04-15T12:33:35.082Z,6.50
2023-04-15T12:43:56.217Z,6.55
2023-04-15T12:54:18.346Z,6.56
2023-04-15T13:04:39.704Z,6.56
2023-04-15T13:15:01.190Z,6.61
2023-04-15T13:25:22.380Z,6.59
2023-04-15T13:35:43.521Z,6.58
2023-04-15T13:46:04.760Z,6.59
2023-04-15T13:56:27.014Z,6.63
2023-04-15T14:06:48.210Z,6.69
2023-04-15T14:17:09.134Z,6.75
2023-04-15T14:27:30.150Z,6.82
2023-04-15T14:37:51.408Z,6.84
2023-04-15T14:48:12.887Z,6.82
2023-04-15T14:58:34.085Z,6.83
2023-04-15T15:08:55.506Z,6.84
2023-04-15T15:19:17.207Z,6.85
2023-04-15T15:29:38.660Z,6.84
2023-04-15T15:40:01.076Z,6.85
2023-04-15T15:50:22.398Z,6.86
2023-04-15T16:00:43.749Z,6.87
2023-04-15T16:11:05.598Z,6.87
2023-04-15T16:21:27.522Z,6.88
2023-04-15T16:31:48.665Z,6.86
2023-04-15T16:42:10.407Z,6.85
2023-04-15T16:52:31.432Z,6.82
2023-04-15T17:02:53.108Z,6.80
2023-04-15T17:13:14.517Z,6.77
2023-04-15T17:23:35.811Z,6.74
2023-04-15T17:34:08.891Z,6.71
2023-04-15T17:44:31.429Z,6.66
2023-04-15T17:54:52.942Z,6.62
2023-04-15T18:05:14.759Z,6.61
2023-04-15T18:15:36.254Z,6.58
2023-04-15T18:25:58.600Z,6.55
2023-04-15T18:36:19.832Z,6.50
2023-04-15T18:46:41.107Z,6.47
2023-04-15T18:57:04.215Z,6.41
2023-04-15T19:07:25.834Z,6.37
2023-04-15T19:17:47.681Z,6.31
2023-04-15T19:28:08.679Z,6.26
2023-04-15T19:38:31.195Z,6.21
2023-04-15T19:48:53.461Z,6.19
2023-04-15T19:59:14.723Z,6.20
2023-04-15T20:09:37.533Z,6.17
2023-04-15T20:19:58.721Z,6.11
2023-04-15T20:30:20.295Z,6.04
2023-04-15T20:40:42.570Z,5.95
2023-04-15T20:51:03.552Z,5.87
2023-04-15T21:01:24.833Z,5.80
2023-04-15T21:12:00.633Z,5.74
2023-04-15T21:22:23.051Z,5.70
2023-04-15T21:32:44.107Z,5.65
2023-04-15T21:43:05.683Z,5.62
2023-04-15T21:53:26.862Z,5.60
2023-04-15T22:03:47.998Z,5.59
2023-04-15T22:14:09.671Z,5.57
2023-04-15T22:24:39.576Z,5.55
2023-04-15T22:35:02.231Z,5.53
2023-04-15T22:45:23.818Z,5.51
2023-04-15T22:55:47.215Z,5.49
2023-04-15T23:06:08.576Z,5.47
2023-04-15T23:16:29.774Z,5.44
2023-04-15T23:26:53.124Z,5.41
2023-04-15T23:37:17.639Z,5.37
2023-04-15T23:47:39.804Z,5.32
2023-04-15T23:58:01.209Z,5.25
